sensor_id;sensor_type;location;lat;lon;timestamp;temperature;humidity
18648;DHT22;9453;50.294;18.644;2023-11-21T05:01:53;8.30;99.90
18648;DHT22;9453;50.294;18.644;2023-11-21T05:04:20;8.30;99.90
18648;DHT22;9453;50.294;18.644;2023-11-21T05:06:48;8.30;99.90
18648;DHT22;9453;50.294;18.644;2023-11-21T05:09:15;8.30;99.90
18648;DHT22;9453;50.294;18.644;2023-11-21T05:11:42;8.30;99.90
18648;DHT22;9453;50.294;18.644;2023-11-21T05:14:09;8.30;99.90
18648;DHT22;9453;50.294;18.644;2023-11-21T05:16:36;8.30;99.90
18648;DHT22;9453;50.294;18.644;2023-11-21T05:19:05;8.40;99.90
18648;DHT22;9453;50.294;18.644;2023-11-21T05:21:32;8.40;99.90
18648;DHT22;9453;50.294;18.644;2023-11-21T05:23:59;8.40;99.90
18648;DHT22;9453;50.294;18.644;2023-11-21T05:26:26;8.40;99.90
18648;DHT22;9453;50.294;18.644;2023-11-21T05:28:53;8.40;99.90
18648;DHT22;9453;50.294;18.644;2023-11-21T05:31:23;8.40;99.90
18648;DHT22;9453;50.294;18.644;2023-11-21T05:33:50;8.40;99.90
18648;DHT22;9453;50.294;18.644;2023-11-21T05:36:18;8.50;99.90
18648;DHT22;9453;50.294;18.644;2023-11-21T05:38:45;8.50;99.90
18648;DHT22;9453;50.294;18.644;2023-11-21T05:41:12;8.50;99.90
18648;DHT22;9453;50.294;18.644;2023-11-21T05:43:39;8.50;99.90
18648;DHT22;9453;50.294;18.644;2023-11-21T05:46:06;8.50;99.90
18648;DHT22;9453;50.294;18.644;2023-11-21T05:48:34;8.50;99.90
18648;DHT22;9453;50.294;18.644;2023-11-21T05:51:03;8.50;99.90
18648;DHT22;9453;50.294;18.644;2023-11-21T05:53:32;8.50;99.90
18648;DHT22;9453;50.294;18.644;2023-11-21T05:55:59;8.50;99.90
18648;DHT22;9453;50.294;18.644;2023-11-21T05:58:26;8.50;99.90
18648;DHT22;9453;50.294;18.644;2023-11-21T06:00:53;8.50;99.90
18648;DHT22;9453;50.294;18.644;2023-11-21T06:03:20;8.50;99.90
18648;DHT22;9453;50.294;18.644;2023-11-21T06:05:48;8.50;99.90
18648;DHT22;9453;50.294;18.644;2023-11-21T06:08:16;8.50;99.90
18648;DHT22;9453;50.294;18.644;2023-11-21T06:10:44;8.50;99.90
18648;DHT22;9453;50.294;18.644;2023-11-21T06:13:14;8.50;99.90
18648;DHT22;9453;50.294;18.644;2023-11-21T06:15:44;8.60;99.90
18648;DHT22;9453;50.294;18.644;2023-11-21T06:18:11;8.60;99.90
18648;DHT22;9453;50.294;18.644;2023-11-21T06:20:38;8.60;99.90
18648;DHT22;9453;50.294;18.644;2023-11-21T06:23:05;8.60;99.90
18648;DHT22;9453;50.294;18.644;2023-11-21T06:25:32;8.50;99.90
18648;DHT22;9453;50.294;18.644;2023-11-21T06:28:03;8.60;99.90
18648;DHT22;9453;50.294;18.644;2023-11-21T06:30:30;8.50;99.90
18648;DHT22;9453;50.294;18.644;2023-11-21T06:32:57;8.50;99.90
18648;DHT22;9453;50.294;18.644;2023-11-21T06:35:26;8.50;99.90
18648;DHT22;9453;50.294;18.644;2023-11-21T06:37:56;8.50;99.90
18648;DHT22;9453;50.294;18.644;2023-11-21T06:40:23;8.50;99.90
18648;DHT22;9453;50.294;18.644;2023-11-21T06:42:51;8.50;99.90
18648;DHT22;9453;50.294;18.644;2023-11-21T06:45:20;8.50;99.90
18648;DHT22;9453;50.294;18.644;2023-11-21T06:47:47;8.50;99.90
18648;DHT22;9453;50.294;18.644;2023-11-21T06:50:14;8.50;99.90
18648;DHT22;9453;50.294;18.644;2023-11-21T06:52:41;8.50;99.90
18648;DHT22;9453;50.294;18.644;2023-11-21T06:55:09;8.50;99.90
18648;DHT22;9453;50.294;18.644;2023-11-21T06:57:36;8.50;99.90
18648;DHT22;9453;50.294;18.644;2023-11-21T07:00:04;8.50;99.90
18648;DHT22;9453;50.294;18.644;2023-11-21T07:02:35;8.50;99.90
18648;DHT22;9453;50.294;18.644;2023-11-21T07:05:03;8.50;99.90
18648;DHT22;9453;50.294;18.644;2023-11-21T07:07:31;8.50;99.90
18648;DHT22;9453;50.294;18.644;2023-11-21T07:10:01;8.50;99.90
18648;DHT22;9453;50.294;18.644;2023-11-21T07:12:29;8.50;99.90
18648;DHT22;9453;50.294;18.644;2023-11-21T07:14:56;8.60;99.90
18648;DHT22;9453;50.294;18.644;2023-11-21T07:17:23;8.50;99.90
18648;DHT22;9453;50.294;18.644;2023-11-21T07:19:51;8.40;99.90
18648;DHT22;9453;50.294;18.644;2023-11-21T07:22:18;8.40;99.90
18648;DHT22;9453;50.294;18.644;2023-11-21T07:24:48;8.40;99.90
18648;DHT22;9453;50.294;18.644;2023-11-21T07:27:16;8.40;99.90
18648;DHT22;9453;50.294;18.644;2023-11-21T07:29:43;8.40;99.90
18648;DHT22;9453;50.294;18.644;2023-11-21T07:32:10;8.50;99.90
18648;DHT22;9453;50.294;18.644;2023-11-21T07:34:38;8.50;99.90
18648;DHT22;9453;50.294;18.644;2023-11-21T07:37:07;8.50;99.90
18648;DHT22;9453;50.294;18.644;2023-11-21T07:39:34;8.40;99.90
18648;DHT22;9453;50.294;18.644;2023-11-21T07:42:01;8.30;99.90
18648;DHT22;9453;50.294;18.644;2023-11-21T07:44:28;8.20;99.90
18648;DHT22;9453;50.294;18.644;2023-11-21T07:46:55;8.20;99.90
18648;DHT22;9453;50.294;18.644;2023-11-21T07:49:23;8.20;99.90
18648;DHT22;9453;50.294;18.644;2023-11-21T07:51:52;8.30;99.90
18648;DHT22;9453;50.294;18.644;2023-11-21T07:54:20;8.30;99.90
18648;DHT22;9453;50.294;18.644;2023-11-21T07:56:47;8.30;99.90
18648;DHT22;9453;50.294;18.644;2023-11-21T07:59:14;8.40;99.90
18648;DHT22;9453;50.294;18.644;2023-11-21T08:01:42;8.50;99.90
18648;DHT22;9453;50.294;18.644;2023-11-21T08:04:11;8.50;99.90
18648;DHT22;9453;50.294;18.644;2023-11-21T08:06:38;8.50;99.90
18648;DHT22;9453;50.294;18.644;2023-11-21T08:09:07;8.60;99.90
18648;DHT22;9453;50.294;18.644;2023-11-21T08:11:36;8.60;99.90
18648;DHT22;9453;50.294;18.644;2023-11-21T08:14:04;8.60;99.90
18648;DHT22;9453;50.294;18.644;2023-11-21T08:16:31;8.70;99.90
18648;DHT22;9453;50.294;18.644;2023-11-21T08:18:58;8.70;99.90
18648;DHT22;9453;50.294;18.644;2023-11-21T08:21:25;8.60;99.90
18648;DHT22;9453;50.294;18.644;2023-11-21T08:23:54;8.60;99.90
18648;DHT22;9453;50.294;18.644;2023-11-21T08:26:21;8.60;99.90
18648;DHT22;9453;50.294;18.644;2023-11-21T08:28:50;8.70;99.90
18648;DHT22;9453;50.294;18.644;2023-11-21T08:31:24;8.70;99.90
18648;DHT22;9453;50.294;18.644;2023-11-21T08:33:51;8.70;99.90
18648;DHT22;9453;50.294;18.644;2023-11-21T08:36:21;8.80;99.90
18648;DHT22;9453;50.294;18.644;2023-11-21T08:38:48;8.80;99.90
18648;DHT22;9453;50.294;18.644;2023-11-21T08:41:18;8.80;99.90
18648;DHT22;9453;50.294;18.644;2023-11-21T08:43:47;8.80;99.90
18648;DHT22;9453;50.294;18.644;2023-11-21T08:46:16;8.80;99.90
18648;DHT22;9453;50.294;18.644;2023-11-21T08:48:43;8.90;99.90
18648;DHT22;9453;50.294;18.644;2023-11-21T08:51:10;9.00;99.90
18648;DHT22;9453;50.294;18.644;2023-11-21T08:53:38;9.00;99.90
18648;DHT22;9453;50.294;18.644;2023-11-21T08:56:07;9.10;99.90
18648;DHT22;9453;50.294;18.644;2023-11-21T08:58:35;9.10;99.90
18648;DHT22;9453;50.294;18.644;2023-11-21T09:01:03;9.10;99.90
18648;DHT22;9453;50.294;18.644;2023-11-21T09:03:31;9.20;99.90
18648;DHT22;9453;50.294;18.644;2023-11-21T09:05:59;9.30;99.90
18648;DHT22;9453;50.294;18.644;2023-11-21T09:08:26;9.50;99.90
18648;DHT22;9453;50.294;18.644;2023-11-21T09:10:55;9.60;99.90
18648;DHT22;9453;50.294;18.644;2023-11-21T09:13:22;9.60;99.90
18648;DHT22;9453;50.294;18.644;2023-11-21T09:15:50;9.70;99.90
18648;DHT22;9453;50.294;18.644;2023-11-21T09:18:17;9.70;99.90
18648;DHT22;9453;50.294;18.644;2023-11-21T09:20:46;9.80;99.90
18648;DHT22;9453;50.294;18.644;2023-11-21T09:23:13;9.90;99.90
18648;DHT22;9453;50.294;18.644;2023-11-21T09:25:40;10.00;99.90
18648;DHT22;9453;50.294;18.644;2023-11-21T09:28:07;10.00;99.90
18648;DHT22;9453;50.294;18.644;2023-11-21T09:30:34;10.20;99.90
18648;DHT22;9453;50.294;18.644;2023-11-21T09:33:01;10.20;99.90
18648;DHT22;9453;50.294;18.644;2023-11-21T09:35:28;10.30;99.90
18648;DHT22;9453;50.294;18.644;2023-11-21T09:37:57;10.10;99.90
18648;DHT22;9453;50.294;18.644;2023-11-21T09:40:31;10.10;99.90
18648;DHT22;9453;50.294;18.644;2023-11-21T09:43:06;10.10;99.90
18648;DHT22;9453;50.294;18.644;2023-11-21T09:45:35;10.00;99.90
18648;DHT22;9453;50.294;18.644;2023-11-21T09:48:02;10.00;99.90
18648;DHT22;9453;50.294;18.644;2023-11-21T09:50:31;9.90;99.90
18648;DHT22;9453;50.294;18.644;2023-11-21T09:53:08;9.90;99.90
18648;DHT22;9453;50.294;18.644;2023-11-21T09:55:42;9.70;99.90
18648;DHT22;9453;50.294;18.644;2023-11-21T09:58:10;9.60;99.90
18648;DHT22;9453;50.294;18.644;2023-11-21T10:00:40;9.40;99.90
18648;DHT22;9453;50.294;18.644;2023-11-21T10:03:08;9.30;99.90
18648;DHT22;9453;50.294;18.644;2023-11-21T10:05:35;9.30;99.90
18648;DHT22;9453;50.294;18.644;2023-11-21T10:08:06;9.10;99.90
18648;DHT22;9453;50.294;18.644;2023-11-21T10:10:33;9.10;99.90
18648;DHT22;9453;50.294;18.644;2023-11-21T10:13:02;9.10;99.90
18648;DHT22;9453;50.294;18.644;2023-11-21T10:15:33;9.10;99.90
18648;DHT22;9453;50.294;18.644;2023-11-21T10:18:02;9.10;99.90
18648;DHT22;9453;50.294;18.644;2023-11-21T10:20:32;9.00;99.90
18648;DHT22;9453;50.294;18.644;2023-11-21T10:23:00;9.00;99.90
18648;DHT22;9453;50.294;18.644;2023-11-21T10:25:30;9.10;99.90
18648;DHT22;9453;50.294;18.644;2023-11-21T10:27:59;9.20;99.90
18648;DHT22;9453;50.294;18.644;2023-11-21T10:30:32;9.30;99.90
18648;DHT22;9453;50.294;18.644;2023-11-21T10:33:02;9.50;99.90
18648;DHT22;9453;50.294;18.644;2023-11-21T10:35:48;9.70;99.90
18648;DHT22;9453;50.294;18.644;2023-11-21T10:38:16;9.70;99.90
18648;DHT22;9453;50.294;18.644;2023-11-21T10:40:45;9.80;99.90
18648;DHT22;9453;50.294;18.644;2023-11-21T10:43:13;9.80;99.90
18648;DHT22;9453;50.294;18.644;2023-11-21T10:45:42;9.80;99.90
18648;DHT22;9453;50.294;18.644;2023-11-21T10:48:10;9.70;99.90
18648;DHT22;9453;50.294;18.644;2023-11-21T10:50:40;9.70;99.90
18648;DHT22;9453;50.294;18.644;2023-11-21T10:53:07;9.80;99.90
18648;DHT22;9453;50.294;18.644;2023-11-21T10:55:34;9.80;99.90
18648;DHT22;9453;50.294;18.644;2023-11-21T10:58:04;9.90;99.90
18648;DHT22;9453;50.294;18.644;2023-11-21T11:00:32;9.80;99.90
18648;DHT22;9453;50.294;18.644;2023-11-21T11:03:00;9.90;99.90
18648;DHT22;9453;50.294;18.644;2023-11-21T11:05:29;9.90;99.90
18648;DHT22;9453;50.294;18.644;2023-11-21T11:07:59;9.90;99.90
18648;DHT22;9453;50.294;18.644;2023-11-21T11:10:27;9.90;99.90
18648;DHT22;9453;50.294;18.644;2023-11-21T11:12:55;9.90;99.90
18648;DHT22;9453;50.294;18.644;2023-11-21T11:15:24;9.80;99.90
18648;DHT22;9453;50.294;18.644;2023-11-21T11:17:52;9.70;99.90
18648;DHT22;9453;50.294;18.644;2023-11-21T11:20:24;9.80;99.90
18648;DHT22;9453;50.294;18.644;2023-11-21T11:23:04;9.80;99.90
18648;DHT22;9453;50.294;18.644;2023-11-21T11:25:58;9.80;99.90
18648;DHT22;9453;50.294;18.644;2023-11-21T11:28:32;9.70;99.90
18648;DHT22;9453;50.294;18.644;2023-11-21T11:31:05;9.70;99.90
18648;DHT22;9453;50.294;18.644;2023-11-21T11:33:41;9.70;99.90
18648;DHT22;9453;50.294;18.644;2023-11-21T11:36:15;9.70;99.90
18648;DHT22;9453;50.294;18.644;2023-11-21T11:38:46;9.80;99.90
18648;DHT22;9453;50.294;18.644;2023-11-21T11:41:24;9.80;99.90
18648;DHT22;9453;50.294;18.644;2023-11-21T11:43:52;9.80;99.90
18648;DHT22;9453;50.294;18.644;2023-11-21T11:46:20;9.80;99.90
18648;DHT22;9453;50.294;18.644;2023-11-21T11:48:48;9.90;99.90
18648;DHT22;9453;50.294;18.644;2023-11-21T11:51:15;9.80;99.90
18648;DHT22;9453;50.294;18.644;2023-11-21T11:53:46;9.90;99.90
18648;DHT22;9453;50.294;18.644;2023-11-21T11:56:24;10.00;99.90
18648;DHT22;9453;50.294;18.644;2023-11-21T11:58:53;10.10;99.90
18648;DHT22;9453;50.294;18.644;2023-11-21T12:01:22;9.90;99.90
18648;DHT22;9453;50.294;18.644;2023-11-21T12:07:00;9.90;99.90
18648;DHT22;9453;50.294;18.644;2023-11-21T12:09:30;9.70;99.90
18648;DHT22;9453;50.294;18.644;2023-11-21T12:11:58;9.60;99.90
18648;DHT22;9453;50.294;18.644;2023-11-21T12:14:25;9.60;99.90
18648;DHT22;9453;50.294;18.644;2023-11-21T12:16:54;9.60;99.90
18648;DHT22;9453;50.294;18.644;2023-11-21T12:19:21;9.60;99.90
18648;DHT22;9453;50.294;18.644;2023-11-21T12:21:49;9.70;99.90
18648;DHT22;9453;50.294;18.644;2023-11-21T12:24:17;9.50;99.90
18648;DHT22;9453;50.294;18.644;2023-11-21T12:26:44;9.40;99.90
18648;DHT22;9453;50.294;18.644;2023-11-21T12:29:11;9.40;99.90
18648;DHT22;9453;50.294;18.644;2023-11-21T12:31:39;9.40;99.90
18648;DHT22;9453;50.294;18.644;2023-11-21T12:34:08;9.50;99.90
18648;DHT22;9453;50.294;18.644;2023-11-21T12:36:37;9.50;99.90
18648;DHT22;9453;50.294;18.644;2023-11-21T12:39:04;9.50;99.90
18648;DHT22;9453;50.294;18.644;2023-11-21T12:41:31;9.50;99.90
18648;DHT22;9453;50.294;18.644;2023-11-21T12:43:58;9.50;99.90
18648;DHT22;9453;50.294;18.644;2023-11-21T12:46:25;9.50;99.90
18648;DHT22;9453;50.294;18.644;2023-11-21T12:48:56;9.60;99.90
18648;DHT22;9453;50.294;18.644;2023-11-21T12:51:25;9.60;99.90
18648;DHT22;9453;50.294;18.644;2023-11-21T12:53:52;9.80;99.90
18648;DHT22;9453;50.294;18.644;2023-11-21T12:56:21;9.60;99.90
18648;DHT22;9453;50.294;18.644;2023-11-21T12:58:50;9.70;99.90
18648;DHT22;9453;50.294;18.644;2023-11-21T13:01:17;9.70;99.90
18648;DHT22;9453;50.294;18.644;2023-11-21T13:03:47;9.60;99.90
18648;DHT22;9453;50.294;18.644;2023-11-21T13:06:17;9.60;99.90
18648;DHT22;9453;50.294;18.644;2023-11-21T13:08:46;9.70;99.90
18648;DHT22;9453;50.294;18.644;2023-11-21T13:11:13;9.70;99.90
18648;DHT22;9453;50.294;18.644;2023-11-21T13:13:41;9.60;99.90
18648;DHT22;9453;50.294;18.644;2023-11-21T13:16:09;9.60;99.90
18648;DHT22;9453;50.294;18.644;2023-11-21T13:18:36;9.40;99.90
18648;DHT22;9453;50.294;18.644;2023-11-21T13:21:06;9.40;99.90
18648;DHT22;9453;50.294;18.644;2023-11-21T13:23:37;9.40;99.90
18648;DHT22;9453;50.294;18.644;2023-11-21T13:26:05;9.40;99.90
18648;DHT22;9453;50.294;18.644;2023-11-21T13:28:34;9.30;99.90
18648;DHT22;9453;50.294;18.644;2023-11-21T13:31:04;9.30;99.90
18648;DHT22;9453;50.294;18.644;2023-11-21T13:33:46;9.30;99.90
18648;DHT22;9453;50.294;18.644;2023-11-21T13:36:16;9.30;99.90
18648;DHT22;9453;50.294;18.644;2023-11-21T13:38:48;9.20;99.90
18648;DHT22;9453;50.294;18.644;2023-11-21T13:41:16;9.10;99.90
18648;DHT22;9453;50.294;18.644;2023-11-21T13:43:44;9.20;99.90
18648;DHT22;9453;50.294;18.644;2023-11-21T13:46:24;9.20;99.90
18648;DHT22;9453;50.294;18.644;2023-11-21T13:48:51;9.20;99.90
18648;DHT22;9453;50.294;18.644;2023-11-21T13:51:21;9.10;99.90
18648;DHT22;9453;50.294;18.644;2023-11-21T13:53:56;9.20;99.90
18648;DHT22;9453;50.294;18.644;2023-11-21T13:56:26;9.10;99.90
18648;DHT22;9453;50.294;18.644;2023-11-21T13:58:54;9.10;99.90
18648;DHT22;9453;50.294;18.644;2023-11-21T14:01:24;9.00;99.90
18648;DHT22;9453;50.294;18.644;2023-11-21T14:04:10;9.00;99.90
18648;DHT22;9453;50.294;18.644;2023-11-21T14:06:46;9.00;99.90
18648;DHT22;9453;50.294;18.644;2023-11-21T14:09:15;8.90;99.90
18648;DHT22;9453;50.294;18.644;2023-11-21T14:11:50;8.80;99.90
18648;DHT22;9453;50.294;18.644;2023-11-21T14:14:19;8.90;99.90
18648;DHT22;9453;50.294;18.644;2023-11-21T14:16:46;8.80;99.90
18648;DHT22;9453;50.294;18.644;2023-11-21T14:19:13;8.80;99.90
18648;DHT22;9453;50.294;18.644;2023-11-21T14:21:43;8.70;99.90
18648;DHT22;9453;50.294;18.644;2023-11-21T14:24:10;8.70;99.90
18648;DHT22;9453;50.294;18.644;2023-11-21T14:26:42;8.80;99.90
18648;DHT22;9453;50.294;18.644;2023-11-21T14:29:13;8.70;99.90
18648;DHT22;9453;50.294;18.644;2023-11-21T14:31:41;8.70;99.90
18648;DHT22;9453;50.294;18.644;2023-11-21T14:34:09;8.60;99.90
18648;DHT22;9453;50.294;18.644;2023-11-21T14:36:37;8.60;99.90
18648;DHT22;9453;50.294;18.644;2023-11-21T14:39:05;8.50;99.90
18648;DHT22;9453;50.294;18.644;2023-11-21T14:41:36;8.40;99.90
18648;DHT22;9453;50.294;18.644;2023-11-21T14:44:05;8.40;99.90
18648;DHT22;9453;50.294;18.644;2023-11-21T14:46:38;8.40;99.90
18648;DHT22;9453;50.294;18.644;2023-11-21T14:49:09;8.30;99.90
18648;DHT22;9453;50.294;18.644;2023-11-21T14:51:45;8.30;99.90
18648;DHT22;9453;50.294;18.644;2023-11-21T14:54:26;8.20;99.90
18648;DHT22;9453;50.294;18.644;2023-11-21T14:57:06;8.20;99.90
18648;DHT22;9453;50.294;18.644;2023-11-21T14:59:37;8.20;99.90
18648;DHT22;9453;50.294;18.644;2023-11-21T15:02:05;8.20;99.90
18648;DHT22;9453;50.294;18.644;2023-11-21T15:04:42;8.10;99.90
18648;DHT22;9453;50.294;18.644;2023-11-21T15:07:10;8.10;99.90
18648;DHT22;9453;50.294;18.644;2023-11-21T15:09:37;8.10;99.90
18648;DHT22;9453;50.294;18.644;2023-11-21T15:12:08;8.10;99.90
18648;DHT22;9453;50.294;18.644;2023-11-21T15:14:45;8.00;99.90
18648;DHT22;9453;50.294;18.644;2023-11-21T15:17:15;8.00;99.90
18648;DHT22;9453;50.294;18.644;2023-11-21T15:19:48;8.00;99.90
18648;DHT22;9453;50.294;18.644;2023-11-21T15:22:15;8.00;99.90
18648;DHT22;9453;50.294;18.644;2023-11-21T15:24:43;8.00;99.90
18648;DHT22;9453;50.294;18.644;2023-11-21T15:27:12;8.00;99.90
18648;DHT22;9453;50.294;18.644;2023-11-21T15:29:39;8.00;99.90
18648;DHT22;9453;50.294;18.644;2023-11-21T15:32:07;8.00;99.90
18648;DHT22;9453;50.294;18.644;2023-11-21T15:34:36;7.90;99.90
18648;DHT22;9453;50.294;18.644;2023-11-21T15:37:04;7.90;99.90
18648;DHT22;9453;50.294;18.644;2023-11-21T15:39:36;7.90;99.90
18648;DHT22;9453;50.294;18.644;2023-11-21T15:42:04;7.90;99.90
18648;DHT22;9453;50.294;18.644;2023-11-21T15:44:33;7.90;99.90
18648;DHT22;9453;50.294;18.644;2023-11-21T15:47:00;7.80;99.90
18648;DHT22;9453;50.294;18.644;2023-11-21T15:49:29;7.80;99.90
18648;DHT22;9453;50.294;18.644;2023-11-21T15:52:01;7.80;99.90
18648;DHT22;9453;50.294;18.644;2023-11-21T15:54:29;7.70;99.90
18648;DHT22;9453;50.294;18.644;2023-11-21T15:56:56;7.60;99.90
18648;DHT22;9453;50.294;18.644;2023-11-21T15:59:25;7.60;99.90
18648;DHT22;9453;50.294;18.644;2023-11-21T16:01:55;7.50;99.90
18648;DHT22;9453;50.294;18.644;2023-11-21T16:04:23;7.40;99.90
18648;DHT22;9453;50.294;18.644;2023-11-21T16:06:52;7.50;99.90
18648;DHT22;9453;50.294;18.644;2023-11-21T16:09:21;7.40;99.90
18648;DHT22;9453;50.294;18.644;2023-11-21T16:11:49;7.40;99.90
18648;DHT22;9453;50.294;18.644;2023-11-21T16:14:19;7.30;99.90
18648;DHT22;9453;50.294;18.644;2023-11-21T16:16:51;7.40;99.90
18648;DHT22;9453;50.294;18.644;2023-11-21T16:19:18;7.30;99.90
18648;DHT22;9453;50.294;18.644;2023-11-21T16:21:45;7.20;99.90
18648;DHT22;9453;50.294;18.644;2023-11-21T16:24:12;7.20;99.90
18648;DHT22;9453;50.294;18.644;2023-11-21T16:26:43;7.20;99.90
18648;DHT22;9453;50.294;18.644;2023-11-21T16:29:11;7.10;99.90
18648;DHT22;9453;50.294;18.644;2023-11-21T16:31:38;7.10;99.90
18648;DHT22;9453;50.294;18.644;2023-11-21T16:34:13;7.10;99.90
18648;DHT22;9453;50.294;18.644;2023-11-21T16:36:40;7.00;99.90
18648;DHT22;9453;50.294;18.644;2023-11-21T16:39:07;7.00;99.90
18648;DHT22;9453;50.294;18.644;2023-11-21T16:41:35;6.90;99.90
18648;DHT22;9453;50.294;18.644;2023-11-21T16:44:04;6.90;99.90
18648;DHT22;9453;50.294;18.644;2023-11-21T16:46:32;6.90;99.90
18648;DHT22;9453;50.294;18.644;2023-11-21T16:49:03;6.80;99.90
18648;DHT22;9453;50.294;18.644;2023-11-21T16:51:33;6.70;99.90
18648;DHT22;9453;50.294;18.644;2023-11-21T16:54:00;6.80;99.90
18648;DHT22;9453;50.294;18.644;2023-11-21T16:56:27;6.70;99.90
18648;DHT22;9453;50.294;18.644;2023-11-21T16:58:54;6.70;99.90
18648;DHT22;9453;50.294;18.644;2023-11-21T17:01:23;6.70;99.90
18648;DHT22;9453;50.294;18.644;2023-11-21T17:03:51;6.70;99.90
18648;DHT22;9453;50.294;18.644;2023-11-21T17:06:18;6.60;99.90
18648;DHT22;9453;50.294;18.644;2023-11-21T17:08:45;6.50;99.90
18648;DHT22;9453;50.294;18.644;2023-11-21T17:11:12;6.50;99.90
18648;DHT22;9453;50.294;18.644;2023-11-21T17:13:40;6.50;99.90
18648;DHT22;9453;50.294;18.644;2023-11-21T17:16:07;6.50;99.90
18648;DHT22;9453;50.294;18.644;2023-11-21T17:18:35;6.40;99.90
18648;DHT22;9453;50.294;18.644;2023-11-21T17:21:03;6.40;99.90
18648;DHT22;9453;50.294;18.644;2023-11-21T17:23:30;6.40;99.90
18648;DHT22;9453;50.294;18.644;2023-11-21T17:25:57;6.30;99.90
18648;DHT22;9453;50.294;18.644;2023-11-21T17:28:24;6.30;99.90
18648;DHT22;9453;50.294;18.644;2023-11-21T17:30:51;6.20;99.90
18648;DHT22;9453;50.294;18.644;2023-11-21T17:33:19;6.10;99.90
18648;DHT22;9453;50.294;18.644;2023-11-21T17:35:51;6.00;99.90
18648;DHT22;9453;50.294;18.644;2023-11-21T17:38:21;6.00;99.90
18648;DHT22;9453;50.294;18.644;2023-11-21T17:40:50;6.00;99.90
18648;DHT22;9453;50.294;18.644;2023-11-21T17:43:18;5.90;99.90
18648;DHT22;9453;50.294;18.644;2023-11-21T17:45:44;5.90;99.90
18648;DHT22;9453;50.294;18.644;2023-11-21T17:48:12;5.90;99.90
18648;DHT22;9453;50.294;18.644;2023-11-21T17:50:40;5.80;99.90
18648;DHT22;9453;50.294;18.644;2023-11-21T17:53:08;5.70;99.90
18648;DHT22;9453;50.294;18.644;2023-11-21T17:55:35;5.60;99.90
18648;DHT22;9453;50.294;18.644;2023-11-21T17:58:02;5.40;99.90
18648;DHT22;9453;50.294;18.644;2023-11-21T18:00:29;5.30;99.90
18648;DHT22;9453;50.294;18.644;2023-11-21T18:02:56;5.20;99.90
18648;DHT22;9453;50.294;18.644;2023-11-21T18:05:24;5.40;99.90
18648;DHT22;9453;50.294;18.644;2023-11-21T18:07:51;5.10;99.90
18648;DHT22;9453;50.294;18.644;2023-11-21T18:10:20;5.10;99.90
18648;DHT22;9453;50.294;18.644;2023-11-21T18:12:47;5.00;99.90
18648;DHT22;9453;50.294;18.644;2023-11-21T18:15:14;5.00;99.90
18648;DHT22;9453;50.294;18.644;2023-11-21T18:17:44;4.90;99.90
18648;DHT22;9453;50.294;18.644;2023-11-21T18:20:11;5.00;99.90
18648;DHT22;9453;50.294;18.644;2023-11-21T18:22:38;4.70;99.90
18648;DHT22;9453;50.294;18.644;2023-11-21T18:25:06;4.60;99.90
18648;DHT22;9453;50.294;18.644;2023-11-21T18:27:34;4.60;99.90
18648;DHT22;9453;50.294;18.644;2023-11-21T18:30:01;4.50;99.90
18648;DHT22;9453;50.294;18.644;2023-11-21T18:32:29;4.40;99.90
18648;DHT22;9453;50.294;18.644;2023-11-21T18:34:56;4.30;99.90
18648;DHT22;9453;50.294;18.644;2023-11-21T18:37:23;4.00;99.90
18648;DHT22;9453;50.294;18.644;2023-11-21T18:39:50;4.10;99.90
18648;DHT22;9453;50.294;18.644;2023-11-21T18:42:17;4.00;99.90
18648;DHT22;9453;50.294;18.644;2023-11-21T18:44:45;3.90;99.90
18648;DHT22;9453;50.294;18.644;2023-11-21T18:47:12;3.90;99.90
18648;DHT22;9453;50.294;18.644;2023-11-21T18:49:41;3.80;99.90
18648;DHT22;9453;50.294;18.644;2023-11-21T18:52:08;3.70;99.90
18648;DHT22;9453;50.294;18.644;2023-11-21T18:54:36;3.70;99.90
18648;DHT22;9453;50.294;18.644;2023-11-21T18:57:06;3.70;99.90
18648;DHT22;9453;50.294;18.644;2023-11-21T18:59:34;3.70;99.90
18648;DHT22;9453;50.294;18.644;2023-11-21T19:02:02;3.70;99.90
18648;DHT22;9453;50.294;18.644;2023-11-21T19:04:33;3.70;99.90
18648;DHT22;9453;50.294;18.644;2023-11-21T19:07:00;3.70;99.90
18648;DHT22;9453;50.294;18.644;2023-11-21T19:09:28;3.50;99.90
18648;DHT22;9453;50.294;18.644;2023-11-21T19:11:56;3.40;99.90
18648;DHT22;9453;50.294;18.644;2023-11-21T19:14:24;3.50;99.90
18648;DHT22;9453;50.294;18.644;2023-11-21T19:16:51;3.50;99.90
18648;DHT22;9453;50.294;18.644;2023-11-21T19:19:19;3.40;99.90
18648;DHT22;9453;50.294;18.644;2023-11-21T19:21:47;3.40;99.90
18648;DHT22;9453;50.294;18.644;2023-11-21T19:24:14;3.40;99.90
18648;DHT22;9453;50.294;18.644;2023-11-21T19:26:43;3.40;99.90
18648;DHT22;9453;50.294;18.644;2023-11-21T19:29:11;3.30;99.90
18648;DHT22;9453;50.294;18.644;2023-11-21T19:31:38;3.20;99.90
18648;DHT22;9453;50.294;18.644;2023-11-21T19:34:05;3.50;99.90
18648;DHT22;9453;50.294;18.644;2023-11-21T19:36:33;3.20;99.90
18648;DHT22;9453;50.294;18.644;2023-11-21T19:39:01;3.10;99.90
18648;DHT22;9453;50.294;18.644;2023-11-21T19:41:28;3.10;99.90
18648;DHT22;9453;50.294;18.644;2023-11-21T19:43:55;3.10;99.90
18648;DHT22;9453;50.294;18.644;2023-11-21T19:46:24;3.10;99.90
18648;DHT22;9453;50.294;18.644;2023-11-21T19:48:51;3.10;99.90
18648;DHT22;9453;50.294;18.644;2023-11-21T19:51:19;3.00;99.90
18648;DHT22;9453;50.294;18.644;2023-11-21T19:53:48;3.00;99.90
18648;DHT22;9453;50.294;18.644;2023-11-21T19:56:15;2.90;99.90
18648;DHT22;9453;50.294;18.644;2023-11-21T19:58:44;3.20;99.90
18648;DHT22;9453;50.294;18.644;2023-11-21T20:01:11;2.90;99.90
18648;DHT22;9453;50.294;18.644;2023-11-21T20:03:39;2.90;99.90
18648;DHT22;9453;50.294;18.644;2023-11-21T20:06:07;2.80;99.90
18648;DHT22;9453;50.294;18.644;2023-11-21T20:08:35;2.90;99.90
18648;DHT22;9453;50.294;18.644;2023-11-21T20:11:04;2.90;99.90
18648;DHT22;9453;50.294;18.644;2023-11-21T20:13:31;2.90;99.90
18648;DHT22;9453;50.294;18.644;2023-11-21T20:15:58;2.80;99.90
18648;DHT22;9453;50.294;18.644;2023-11-21T20:18:26;2.70;99.90
18648;DHT22;9453;50.294;18.644;2023-11-21T20:20:55;2.80;99.90
18648;DHT22;9453;50.294;18.644;2023-11-21T20:23:22;2.80;99.90
18648;DHT22;9453;50.294;18.644;2023-11-21T20:25:50;2.90;99.90
18648;DHT22;9453;50.294;18.644;2023-11-21T20:28:24;2.70;99.90
18648;DHT22;9453;50.294;18.644;2023-11-21T20:30:52;2.70;99.90
18648;DHT22;9453;50.294;18.644;2023-11-21T20:33:19;2.70;99.90
18648;DHT22;9453;50.294;18.644;2023-11-21T20:35:46;2.70;99.90
18648;DHT22;9453;50.294;18.644;2023-11-21T20:38:13;2.60;99.90
18648;DHT22;9453;50.294;18.644;2023-11-21T20:40:41;2.50;99.90
18648;DHT22;9453;50.294;18.644;2023-11-21T20:43:08;2.50;99.90
18648;DHT22;9453;50.294;18.644;2023-11-21T20:45:37;2.60;99.90
18648;DHT22;9453;50.294;18.644;2023-11-21T20:48:05;2.60;99.90
18648;DHT22;9453;50.294;18.644;2023-11-21T20:50:33;2.50;99.90
18648;DHT22;9453;50.294;18.644;2023-11-21T20:53:00;2.60;99.90
18648;DHT22;9453;50.294;18.644;2023-11-21T20:55:30;2.60;99.90
18648;DHT22;9453;50.294;18.644;2023-11-21T20:57:57;2.40;99.90